Time;durP1;ratioP1;P1;durP2;ratioP2;P2;SDS_P1;SDS_P2;PMS_P1;PMS_P2;Temp;Humidity;BMP_temperature;BMP_pressure;BME280_temperature;BME280_humidity;BME280_pressure;Samples;Min_cycle;Max_cycle;Signal;HPM_P1;HPM_P2
2023/09/07 00:01:32;;;;;;;4.47;3.40;;;26.60;58.70;27.20;101161.00;;;;5041770;28;20182;-48
2023/09/07 00:03:58;;;;;;;3.90;3.50;;;26.60;58.70;27.20;101173.00;;;;5053085;28;20186;-48
2023/09/07 00:06:25;;;;;;;3.60;3.33;;;26.50;58.40;27.20;101165.00;;;;5048721;28;20271;-47
2023/09/07 00:08:50;;;;;;;3.63;3.30;;;26.50;58.90;26.90;101151.00;;;;5049098;28;20275;-48
2023/09/07 00:11:16;;;;;;;3.92;3.63;;;26.50;58.70;27.10;101164.00;;;;5046490;28;20237;-47
2023/09/07 00:13:42;;;;;;;4.70;3.47;;;26.50;58.50;27.10;101157.00;;;;5051517;28;20190;-48
2023/09/07 00:16:08;;;;;;;4.25;3.60;;;26.40;58.80;27.00;101160.00;;;;5049997;28;20257;-47
2023/09/07 00:18:34;;;;;;;3.40;3.10;;;26.40;58.30;26.80;101154.00;;;;5054834;28;20571;-48
2023/09/07 00:21:00;;;;;;;3.70;3.35;;;26.30;58.70;26.90;101148.00;;;;5049220;28;20182;-47
2023/09/07 00:23:26;;;;;;;3.70;3.40;;;26.30;58.70;26.90;101150.00;;;;5048770;28;20201;-47
2023/09/07 00:25:52;;;;;;;4.50;3.60;;;26.30;58.40;26.90;101152.00;;;;5048871;28;20668;-47
2023/09/07 00:28:17;;;;;;;4.22;3.83;;;26.30;58.40;26.80;101141.00;;;;5047954;28;20652;-49
2023/09/07 00:30:43;;;;;;;3.75;3.40;;;26.30;58.40;26.80;101156.00;;;;5047229;28;20316;-47
2023/09/07 00:33:09;;;;;;;4.30;3.40;;;26.20;58.50;26.80;101154.00;;;;5046792;28;20182;-47
2023/09/07 00:35:35;;;;;;;3.70;3.40;;;26.20;58.50;26.80;101151.00;;;;5048200;28;20186;-47
2023/09/07 00:38:01;;;;;;;3.83;3.53;;;26.20;58.50;26.60;101158.00;;;;5047938;28;20213;-47
2023/09/07 00:40:26;;;;;;;4.40;3.40;;;26.20;58.30;26.80;101167.00;;;;5048140;28;20669;-47
2023/09/07 00:42:53;;;;;;;3.90;3.60;;;26.20;58.40;26.70;101162.00;;;;5048236;28;20225;-47
2023/09/07 00:45:19;;;;;;;4.15;3.75;;;26.20;58.50;26.70;101156.00;;;;5048103;28;20221;-47
2023/09/07 00:47:45;;;;;;;3.70;3.40;;;26.10;58.40;26.70;101145.00;;;;5046246;28;20230;-47
2023/09/07 00:50:13;;;;;;;3.78;3.47;;;26.10;58.50;26.30;101160.00;;;;5046270;28;20188;-46
2023/09/07 00:52:40;;;;;;;4.55;3.50;;;26.10;58.60;26.60;101158.00;;;;5027084;28;20278;-48
2023/09/07 00:55:06;;;;;;;4.18;3.75;;;26.10;58.70;26.60;101164.00;;;;5014186;28;20186;-47
2023/09/07 00:57:32;;;;;;;3.95;3.45;;;26.00;58.60;26.60;101155.00;;;;5047895;28;20213;-47
2023/09/07 00:59:58;;;;;;;3.90;3.55;;;26.00;58.40;26.60;101151.00;;;;5030263;28;20189;-47
2023/09/07 01:02:24;;;;;;;4.00;3.58;;;26.00;58.50;26.50;101157.00;;;;4997302;28;20182;-47
2023/09/07 01:04:51;;;;;;;3.72;3.40;;;26.00;59.00;26.50;101152.00;;;;5047893;28;20186;-48
2023/09/07 01:07:35;;;;;;;3.72;3.42;;;26.00;58.50;26.50;101145.00;;;;5029536;28;20213;-46
2023/09/07 01:10:02;;;;;;;3.92;3.50;;;26.00;58.30;26.50;101153.00;;;;5031207;28;20202;-48
2023/09/07 01:12:28;;;;;;;3.90;3.53;;;25.90;58.50;26.50;101148.00;;;;5030380;28;20190;-47
2023/09/07 01:14:54;;;;;;;3.60;3.30;;;26.00;58.50;26.40;101140.00;;;;5012856;28;20178;-48
2023/09/07 01:17:21;;;;;;;4.30;3.80;;;25.90;58.60;26.40;101123.00;;;;5046954;28;20202;-48
2023/09/07 01:19:49;;;;;;;3.83;3.53;;;25.90;58.30;26.40;101138.00;;;;5046314;28;20189;-48
2023/09/07 01:22:16;;;;;;;3.95;3.55;;;25.80;58.50;26.40;101140.00;;;;5046784;28;20217;-47
2023/09/07 01:24:42;;;;;;;4.03;3.65;;;25.90;58.90;26.40;101137.00;;;;5030316;28;20185;-48
2023/09/07 01:27:08;;;;;;;3.88;3.58;;;25.90;59.10;26.30;101135.00;;;;5046098;28;20213;-48
2023/09/07 01:29:37;;;;;;;3.42;3.17;;;25.80;58.50;26.30;101125.00;;;;5046563;28;20221;-47
2023/09/07 01:32:03;;;;;;;3.38;3.13;;;25.70;58.70;26.30;101133.00;;;;5046644;28;20620;-47
2023/09/07 01:34:29;;;;;;;3.55;3.30;;;25.70;58.70;26.20;101119.00;;;;5047579;28;20186;-47
2023/09/07 01:36:55;;;;;;;3.60;3.30;;;25.70;58.50;26.20;101119.00;;;;5046034;28;20197;-47
2023/09/07 01:39:21;;;;;;;3.72;3.40;;;25.70;58.60;26.20;101118.00;;;;5047579;28;20699;-48
2023/09/07 01:41:47;;;;;;;4.05;3.40;;;25.60;58.50;26.10;101128.00;;;;5047640;28;20657;-48
2023/09/07 01:44:13;;;;;;;5.50;3.55;;;25.60;58.60;26.10;101118.00;;;;5047580;28;20178;-48
2023/09/07 01:46:39;;;;;;;4.00;3.25;;;25.50;58.50;26.00;101126.00;;;;5047186;28;20213;-48
2023/09/07 01:49:04;;;;;;;3.78;3.28;;;25.50;58.50;26.00;101123.00;;;;5045914;28;20178;-48
2023/09/07 01:51:30;;;;;;;4.72;3.70;;;25.50;58.50;26.00;101123.00;;;;5047431;28;20190;-48
2023/09/07 01:53:56;;;;;;;3.72;3.40;;;25.50;58.60;25.80;101133.00;;;;5047212;28;20186;-47
2023/09/07 01:56:22;;;;;;;3.97;3.65;;;25.50;58.90;25.90;101127.00;;;;5045847;28;20194;-48
2023/09/07 01:58:47;;;;;;;4.38;3.80;;;25.40;58.70;25.90;101134.00;;;;5047454;28;20232;-48
2023/09/07 02:01:29;;;;;;;4.55;3.75;;;25.40;58.60;25.90;101137.00;;;;5047826;28;20281;-47
2023/09/07 02:03:55;;;;;;;3.85;3.47;;;25.40;58.50;25.90;101137.00;;;;5054086;28;20277;-48
2023/09/07 02:06:20;;;;;;;3.80;3.50;;;25.40;58.70;25.90;101132.00;;;;5053531;28;20229;-48
2023/09/07 02:08:46;;;;;;;4.57;3.65;;;25.40;58.70;25.80;101133.00;;;;5051402;28;20202;-48
2023/09/07 02:11:12;;;;;;;5.40;3.50;;;25.40;58.70;25.80;101132.00;;;;5051466;28;20186;-48
2023/09/07 02:13:41;;;;;;;3.65;3.35;;;25.40;58.70;25.90;101126.00;;;;5013728;28;20179;-48
2023/09/07 02:16:06;;;;;;;3.58;3.28;;;25.40;58.60;25.80;101134.00;;;;5014336;28;20256;-48
2023/09/07 02:18:35;;;;;;;4.88;3.53;;;25.40;58.40;25.80;101129.00;;;;5033214;28;20195;-48
2023/09/07 02:21:04;;;;;;;3.67;3.38;;;25.40;58.60;25.80;101133.00;;;;5033197;28;20194;-48
2023/09/07 02:23:33;;;;;;;4.63;3.35;;;25.40;58.70;25.80;101132.00;;;;5031029;28;20733;-48
2023/09/07 02:25:59;;;;;;;3.85;3.50;;;25.30;58.70;25.80;101128.00;;;;5030820;28;20202;-47
2023/09/07 02:28:25;;;;;;;3.42;3.15;;;25.30;58.50;25.80;101128.00;;;;5030615;28;20593;-47
2023/09/07 02:30:52;;;;;;;4.93;3.50;;;25.30;58.80;25.70;101118.00;;;;5030874;28;20182;-47
2023/09/07 02:33:17;;;;;;;4.10;3.70;;;25.30;58.70;25.70;101120.00;;;;5030612;28;20258;-47
2023/09/07 02:35:43;;;;;;;4.35;3.40;;;25.30;58.80;25.70;101127.00;;;;5030816;28;20657;-47
2023/09/07 02:38:09;;;;;;;4.82;3.80;;;25.30;58.80;25.70;101120.00;;;;5030432;28;20289;-47
2023/09/07 02:40:44;;;;;;;4.43;3.35;;;25.30;58.80;25.70;101126.00;;;;5012827;28;20183;-46
2023/09/07 02:43:13;;;;;;;3.63;3.33;;;25.30;58.90;25.70;101129.00;;;;5013007;28;20178;-46
2023/09/07 02:45:39;;;;;;;3.85;3.45;;;25.20;58.70;25.60;101125.00;;;;5029887;28;20544;-47
2023/09/07 02:48:05;;;;;;;3.78;3.45;;;25.20;58.70;25.40;101133.00;;;;5048817;28;20704;-46
2023/09/07 02:50:33;;;;;;;3.83;3.50;;;25.20;58.70;25.60;101113.00;;;;5049055;28;20269;-47
2023/09/07 02:53:00;;;;;;;4.25;3.75;;;25.20;58.70;25.60;101112.00;;;;5050013;28;20243;-46
2023/09/07 02:55:26;;;;;;;4.10;3.60;;;25.20;58.70;25.60;101118.00;;;;5050349;28;20552;-46
2023/09/07 02:57:53;;;;;;;3.90;3.60;;;25.10;58.70;25.50;101121.00;;;;5048780;28;20190;-48
2023/09/07 03:00:19;;;;;;;4.07;3.72;;;25.10;58.80;25.50;101118.00;;;;5050355;28;20174;-48
2023/09/07 03:02:45;;;;;;;3.70;3.40;;;25.10;58.80;25.50;101112.00;;;;5051550;28;20583;-47
2023/09/07 03:05:10;;;;;;;4.00;3.40;;;25.00;58.60;25.40;101119.00;;;;5033588;28;20190;-47
2023/09/07 03:07:36;;;;;;;3.67;3.38;;;25.00;59.20;25.40;101113.00;;;;5047104;28;20241;-47
2023/09/07 03:10:02;;;;;;;3.50;3.20;;;25.00;58.60;25.40;101126.00;;;;5048176;28;20204;-47
2023/09/07 03:12:28;;;;;;;4.15;3.58;;;25.00;58.70;25.30;101122.00;;;;5052087;28;20538;-47
2023/09/07 03:14:53;;;;;;;3.97;3.60;;;24.90;58.60;25.30;101127.00;;;;5051123;28;20174;-47
2023/09/07 03:17:20;;;;;;;4.55;4.00;;;24.90;58.80;25.30;101117.00;;;;5050746;28;20272;-47
2023/09/07 03:19:47;;;;;;;3.78;3.47;;;24.90;58.60;25.30;101121.00;;;;5053443;28;20182;-47
2023/09/07 03:22:13;;;;;;;3.67;3.38;;;24.90;58.60;25.20;101118.00;;;;5054394;28;20182;-47
2023/09/07 03:24:39;;;;;;;5.25;3.50;;;24.90;58.60;25.20;101131.00;;;;5050865;28;20183;-47
2023/09/07 03:27:08;;;;;;;3.80;3.20;;;24.80;58.50;25.20;101121.00;;;;5050555;28;20267;-47
2023/09/07 03:29:35;;;;;;;3.70;3.40;;;24.80;58.50;25.10;101115.00;;;;5050997;28;20450;-47
2023/09/07 03:32:01;;;;;;;4.60;3.88;;;24.70;58.40;25.10;101115.00;;;;5050555;28;20251;-48
2023/09/07 03:34:27;;;;;;;3.90;3.60;;;24.70;58.40;25.10;101119.00;;;;5050399;28;20174;-47
2023/09/07 03:36:53;;;;;;;4.00;3.70;;;24.60;58.30;25.00;101108.00;;;;5024949;28;20266;-46
2023/09/07 03:39:21;;;;;;;4.82;3.65;;;24.60;58.30;25.00;101104.00;;;;5047710;28;20261;-48
2023/09/07 03:41:47;;;;;;;3.70;3.40;;;24.60;57.70;25.00;101105.00;;;;5050758;28;20189;-47
2023/09/07 03:44:12;;;;;;;5.30;3.50;;;24.50;57.10;25.00;101100.00;;;;5049117;28;20182;-46
2023/09/07 03:46:38;;;;;;;4.20;3.80;;;24.50;56.80;25.00;101108.00;;;;5050296;28;20210;-48
2023/09/07 03:49:04;;;;;;;3.90;3.50;;;24.50;56.80;24.90;101085.00;;;;5050702;28;20198;-48
2023/09/07 03:51:30;;;;;;;3.92;3.63;;;24.50;56.50;24.90;101108.00;;;;5050438;28;20182;-48
2023/09/07 03:53:56;;;;;;;3.90;3.50;;;24.50;56.30;24.90;101105.00;;;;5050578;28;20178;-47
2023/09/07 03:56:21;;;;;;;4.80;3.47;;;24.50;56.10;24.90;101112.00;;;;5050332;28;20525;-48
2023/09/07 03:58:47;;;;;;;4.32;3.60;;;24.40;56.20;24.90;101105.00;;;;5054722;28;20190;-47
2023/09/07 04:01:14;;;;;;;4.28;3.88;;;24.40;56.00;24.90;101107.00;;;;5049690;28;20664;-49
2023/09/07 04:03:42;;;;;;;3.55;3.25;;;24.40;55.60;24.80;101101.00;;;;5044194;28;20179;-47
2023/09/07 04:06:08;;;;;;;3.90;3.50;;;24.40;56.00;24.80;101108.00;;;;5053049;28;20232;-48
2023/09/07 04:08:35;;;;;;;4.53;3.65;;;24.40;56.00;24.80;101108.00;;;;5048435;28;20202;-48
2023/09/07 04:11:05;;;;;;;5.43;3.70;;;24.40;56.00;24.80;101108.00;;;;5049952;28;20206;-48
2023/09/07 04:13:31;;;;;;;3.92;3.53;;;24.40;56.00;24.80;101108.00;;;;5034207;28;20182;-47
2023/09/07 04:15:56;;;;;;;6.00;3.70;;;24.40;56.00;24.80;101110.00;;;;5049136;28;20254;-47
2023/09/07 04:18:22;;;;;;;3.72;3.40;;;24.40;56.00;24.80;101112.00;;;;5049230;28;20248;-47
2023/09/07 04:20:48;;;;;;;4.18;3.53;;;24.40;55.70;24.80;101113.00;;;;5048349;28;20189;-46
2023/09/07 04:23:14;;;;;;;4.38;3.40;;;24.30;55.70;24.70;101101.00;;;;5030935;28;20174;-47
2023/09/07 04:25:39;;;;;;;3.58;3.28;;;24.30;55.60;24.70;101108.00;;;;5041065;28;20652;-47
2023/09/07 04:28:08;;;;;;;5.45;3.60;;;24.30;55.70;24.70;101089.00;;;;5048584;28;20286;-47
2023/09/07 04:30:41;;;;;;;4.13;3.65;;;24.30;55.90;24.70;101096.00;;;;5049054;28;20183;-48
2023/09/07 04:33:07;;;;;;;3.72;3.42;;;24.30;55.90;24.70;101103.00;;;;5050075;28;20548;-47
2023/09/07 04:35:33;;;;;;;3.60;3.30;;;24.30;55.70;24.70;101104.00;;;;5048673;28;20170;-47
2023/09/07 04:37:59;;;;;;;3.95;3.20;;;24.30;55.50;24.60;101114.00;;;;5048136;28;20198;-47
2023/09/07 04:40:24;;;;;;;6.97;6.38;;;24.30;55.50;24.60;101107.00;;;;5049015;28;20257;-47
2023/09/07 04:42:50;;;;;;;4.20;3.80;;;24.30;55.40;24.60;101115.00;;;;5048904;28;20628;-48
2023/09/07 04:45:17;;;;;;;3.67;3.38;;;24.20;55.70;24.60;101120.00;;;;5047160;28;20181;-47
2023/09/07 04:47:43;;;;;;;4.85;3.90;;;24.20;55.40;24.60;101111.00;;;;5048994;28;20210;-47
2023/09/07 04:50:09;;;;;;;4.13;3.70;;;24.20;55.40;24.60;101107.00;;;;5049024;28;20686;-47
2023/09/07 04:52:35;;;;;;;3.63;3.33;;;24.20;55.40;24.60;101120.00;;;;5048734;28;20181;-46
2023/09/07 04:55:01;;;;;;;3.60;3.30;;;24.20;55.20;24.60;101113.00;;;;5047041;28;20646;-46
2023/09/07 04:57:28;;;;;;;4.05;3.65;;;24.20;55.40;24.50;101110.00;;;;5048613;28;20689;-47
2023/09/07 04:59:54;;;;;;;3.45;3.15;;;24.10;55.50;24.50;101089.00;;;;5047428;28;20261;-47
2023/09/07 05:02:20;;;;;;;4.53;3.47;;;24.10;55.40;24.50;101090.00;;;;5048692;28;20194;-46
2023/09/07 05:04:46;;;;;;;3.67;3.38;;;24.10;55.40;24.50;101103.00;;;;5047074;28;20598;-46
2023/09/07 05:07:12;;;;;;;4.00;3.70;;;24.10;55.40;24.50;101100.00;;;;5048048;28;20236;-47
2023/09/07 05:09:38;;;;;;;3.83;3.53;;;24.10;55.50;24.50;101110.00;;;;5048473;28;20194;-47
2023/09/07 05:12:03;;;;;;;3.75;3.45;;;24.10;55.50;24.50;101106.00;;;;5048284;28;20525;-47
2023/09/07 05:14:29;;;;;;;3.60;3.30;;;24.10;55.50;24.50;101105.00;;;;5050636;28;20181;-46
2023/09/07 05:16:56;;;;;;;3.90;3.60;;;24.10;55.50;24.50;101112.00;;;;5047892;28;20216;-47
2023/09/07 05:19:22;;;;;;;4.63;3.53;;;24.10;56.20;24.50;101116.00;;;;5048493;28;20252;-46
2023/09/07 05:21:48;;;;;;;3.95;3.55;;;24.10;55.60;24.50;101116.00;;;;5048290;28;20649;-47
2023/09/07 05:24:15;;;;;;;3.90;3.50;;;24.10;55.80;24.50;101115.00;;;;5048090;28;20257;-46
2023/09/07 05:26:41;;;;;;;4.05;3.65;;;24.10;55.80;24.40;101117.00;;;;5048444;28;20206;-47
2023/09/07 05:29:07;;;;;;;3.88;3.58;;;24.10;55.80;24.40;101128.00;;;;5030671;28;20252;-47
2023/09/07 05:31:33;;;;;;;4.07;3.45;;;24.10;55.80;24.40;101128.00;;;;5048548;28;20397;-47
2023/09/07 05:33:59;;;;;;;4.50;3.35;;;24.10;55.80;24.40;101122.00;;;;5048272;28;20249;-46
2023/09/07 05:36:24;;;;;;;3.80;3.50;;;24.10;56.00;24.40;101129.00;;;;5050493;28;20182;-47
2023/09/07 05:38:50;;;;;;;3.95;3.65;;;24.10;55.80;24.40;101134.00;;;;5052671;28;20259;-46
2023/09/07 05:41:16;;;;;;;3.90;3.58;;;24.10;55.90;24.40;101147.00;;;;5052200;28;20257;-47
2023/09/07 05:43:41;;;;;;;3.72;3.42;;;24.10;55.90;24.40;101069.00;;;;5052393;28;20206;-47
2023/09/07 05:46:07;;;;;;;3.90;3.60;;;24.10;56.20;24.40;101149.00;;;;5052094;28;20178;-47
2023/09/07 05:48:33;;;;;;;3.65;3.35;;;24.10;56.40;24.30;101140.00;;;;5050737;28;20242;-47
2023/09/07 05:50:59;;;;;;;4.05;3.65;;;24.10;56.50;24.40;101141.00;;;;5050644;28;20174;-47
2023/09/07 05:53:26;;;;;;;4.20;3.80;;;24.10;56.60;24.30;101143.00;;;;5007959;28;20174;-47
2023/09/07 05:55:52;;;;;;;3.67;3.40;;;24.10;56.60;24.30;101143.00;;;;5051849;28;20186;-47
2023/09/07 05:58:17;;;;;;;3.80;3.45;;;24.00;56.50;24.30;101140.00;;;;5051586;28;20202;-47
2023/09/07 06:00:43;;;;;;;3.90;3.60;;;24.10;56.80;24.30;101136.00;;;;5045321;28;20265;-46
2023/09/07 06:03:09;;;;;;;4.38;3.90;;;24.10;56.90;24.30;101135.00;;;;5051980;28;20186;-48
2023/09/07 06:05:36;;;;;;;3.70;3.40;;;24.00;57.00;24.30;101143.00;;;;5051408;28;20191;-47
2023/09/07 06:08:02;;;;;;;3.80;3.50;;;24.00;56.90;24.30;101067.00;;;;5052427;28;20206;-46
2023/09/07 06:10:29;;;;;;;3.80;3.50;;;24.00;57.10;24.30;101146.00;;;;5050543;28;20772;-48
2023/09/07 06:12:55;;;;;;;3.72;3.42;;;23.90;57.10;24.20;101154.00;;;;5050435;28;20175;-47
2023/09/07 06:15:21;;;;;;;3.80;3.50;;;23.90;57.10;24.30;101154.00;;;;5051553;28;20185;-46
2023/09/07 06:17:47;;;;;;;4.78;4.20;;;24.00;57.30;24.30;101155.00;;;;5051587;28;20202;-48
2023/09/07 06:20:13;;;;;;;4.18;3.78;;;24.00;57.60;24.30;101161.00;;;;5051583;28;20178;-46
2023/09/07 06:22:38;;;;;;;4.07;3.70;;;24.00;57.70;24.20;101161.00;;;;5042896;28;20186;-47
2023/09/07 06:25:04;;;;;;;5.53;3.90;;;24.00;57.80;24.20;101165.00;;;;5051593;28;20178;-46
2023/09/07 06:27:30;;;;;;;4.32;3.92;;;24.10;58.00;24.20;101161.00;;;;5051173;28;20210;-46
2023/09/07 06:29:56;;;;;;;3.90;3.60;;;24.00;58.20;24.20;101167.00;;;;5051428;28;20209;-46
2023/09/07 06:32:22;;;;;;;5.80;4.20;;;24.10;58.50;24.10;101173.00;;;;5051247;28;20180;-47
2023/09/07 06:34:48;;;;;;;6.47;4.50;;;24.10;58.70;24.20;101172.00;;;;5049849;28;20178;-48
2023/09/07 06:37:14;;;;;;;5.93;4.13;;;24.00;58.70;24.20;101176.00;;;;5057071;28;20202;-47
2023/09/07 06:39:42;;;;;;;4.45;4.03;;;24.00;58.80;24.20;101176.00;;;;5051698;28;20186;-47
2023/09/07 06:42:09;;;;;;;4.38;3.92;;;23.90;59.00;24.20;101173.00;;;;5051510;28;20182;-46
2023/09/07 06:44:35;;;;;;;4.50;4.10;;;23.90;59.60;24.20;101186.00;;;;5051120;28;20196;-47
2023/09/07 06:47:00;;;;;;;4.50;4.10;;;23.90;59.20;24.20;101189.00;;;;5049903;28;20210;-46
2023/09/07 06:49:29;;;;;;;5.05;4.40;;;23.90;59.60;24.20;101184.00;;;;5050401;28;20174;-46
2023/09/07 06:51:57;;;;;;;4.50;4.10;;;23.90;59.40;24.20;101176.00;;;;5049820;28;20231;-46
2023/09/07 06:54:23;;;;;;;4.65;3.90;;;23.80;59.30;24.20;101184.00;;;;5049740;28;20178;-47
2023/09/07 06:56:49;;;;;;;5.55;4.03;;;23.80;59.40;24.20;101191.00;;;;5049449;28;20182;-47
2023/09/07 06:59:15;;;;;;;4.60;4.10;;;23.80;59.50;24.20;101190.00;;;;5050330;28;20284;-47
2023/09/07 07:01:41;;;;;;;4.43;3.83;;;23.80;59.50;24.20;101193.00;;;;5049725;28;20281;-47
2023/09/07 07:04:07;;;;;;;4.57;4.18;;;23.80;59.50;24.20;101197.00;;;;5054449;28;20178;-47
2023/09/07 07:06:33;;;;;;;4.20;3.80;;;23.80;59.50;24.20;101190.00;;;;5043731;28;20235;-47
2023/09/07 07:08:59;;;;;;;3.80;3.50;;;23.80;59.50;24.20;101184.00;;;;5051105;28;20198;-47
2023/09/07 07:11:24;;;;;;;4.47;3.95;;;23.80;59.60;24.30;101198.00;;;;5046588;28;20182;-47
2023/09/07 07:13:50;;;;;;;4.40;4.00;;;23.80;59.70;24.30;101200.00;;;;5053707;28;20208;-47
2023/09/07 07:16:16;;;;;;;4.10;3.70;;;23.80;59.70;24.30;101190.00;;;;5050365;28;20181;-47
2023/09/07 07:18:42;;;;;;;4.55;4.00;;;23.80;59.50;24.30;101197.00;;;;5050178;28;20190;-47
2023/09/07 07:21:09;;;;;;;4.15;3.80;;;23.80;59.50;24.30;101197.00;;;;5053567;28;20219;-47
2023/09/07 07:23:35;;;;;;;4.25;3.95;;;23.80;59.30;24.30;101194.00;;;;5044439;28;20174;-47
2023/09/07 07:26:01;;;;;;;4.20;3.80;;;23.80;59.30;24.40;101201.00;;;;5048579;28;20171;-46
2023/09/07 07:28:26;;;;;;;4.57;3.95;;;23.80;59.60;24.40;101201.00;;;;5051432;28;20229;-46
2023/09/07 07:30:53;;;;;;;4.20;3.90;;;23.90;59.20;24.40;101205.00;;;;5050510;28;20605;-46
2023/09/07 07:33:19;;;;;;;4.50;4.10;;;23.90;59.20;24.40;101203.00;;;;5050411;28;20171;-46
2023/09/07 07:35:45;;;;;;;4.18;3.88;;;23.90;58.90;24.40;101204.00;;;;5051240;28;20609;-46
2023/09/07 07:38:13;;;;;;;4.53;4.10;;;23.90;59.10;24.50;101201.00;;;;5031550;28;20194;-46
2023/09/07 07:40:39;;;;;;;4.47;3.60;;;24.00;59.00;24.50;101214.00;;;;5048316;28;20225;-47
2023/09/07 07:43:06;;;;;;;4.32;3.95;;;24.00;59.10;24.50;101208.00;;;;5044422;28;20712;-47
2023/09/07 07:45:36;;;;;;;4.05;3.75;;;24.00;59.50;24.50;101207.00;;;;5039068;28;20225;-47
2023/09/07 07:48:02;;;;;;;4.18;3.80;;;24.10;59.30;24.60;101200.00;;;;5034573;28;20478;-47
2023/09/07 07:50:28;;;;;;;4.10;3.80;;;24.10;59.10;24.60;101199.00;;;;4998804;28;20179;-47
2023/09/07 07:52:53;;;;;;;4.30;3.90;;;24.10;59.20;24.60;101207.00;;;;5046391;28;20177;-47
2023/09/07 07:55:19;;;;;;;4.28;3.92;;;24.10;59.00;24.60;101202.00;;;;5049880;28;20182;-47
2023/09/07 07:57:45;;;;;;;4.40;4.00;;;24.10;59.10;24.60;101196.00;;;;5049834;28;20198;-47
2023/09/07 08:00:11;;;;;;;4.40;4.00;;;24.10;59.10;24.60;101186.00;;;;5048878;28;20188;-47
2023/09/07 08:02:37;;;;;;;4.82;4.03;;;24.10;59.40;24.60;101187.00;;;;5053216;28;20194;-47
2023/09/07 08:05:04;;;;;;;4.35;3.95;;;24.10;59.40;24.60;101184.00;;;;5045277;28;20178;-47
2023/09/07 08:07:29;;;;;;;4.10;3.80;;;24.10;59.40;24.60;101196.00;;;;5048413;28;20206;-46
2023/09/07 08:09:55;;;;;;;4.20;3.90;;;24.20;59.60;24.40;101187.00;;;;5049119;28;20565;-47
2023/09/07 08:12:21;;;;;;;5.50;3.85;;;24.10;59.70;24.60;101189.00;;;;5049720;28;20171;-46
2023/09/07 08:14:47;;;;;;;4.40;4.03;;;24.10;59.50;24.60;101184.00;;;;5050675;28;20645;-48
2023/09/07 08:17:12;;;;;;;4.40;4.00;;;24.20;59.70;24.60;101180.00;;;;5045603;28;20202;-48
2023/09/07 08:19:46;;;;;;;4.65;4.25;;;24.20;59.80;24.70;101170.00;;;;5065724;28;20551;-47
2023/09/07 08:22:11;;;;;;;4.28;3.88;;;24.20;59.90;24.70;101180.00;;;;5045880;28;20190;-48
2023/09/07 08:24:37;;;;;;;4.10;3.80;;;24.20;60.10;24.70;101181.00;;;;5049947;28;20186;-48
2023/09/07 08:27:03;;;;;;;5.00;4.13;;;24.20;59.90;24.70;101179.00;;;;5058083;28;20194;-47
2023/09/07 08:29:32;;;;;;;4.00;3.70;;;24.20;60.10;24.70;101183.00;;;;5027561;28;20237;-47
2023/09/07 08:31:59;;;;;;;4.72;4.32;;;24.20;60.20;24.70;101182.00;;;;5025549;28;20266;-47
2023/09/07 08:34:25;;;;;;;4.50;4.10;;;24.20;60.50;24.70;101182.00;;;;5023981;28;20183;-47
2023/09/07 08:36:52;;;;;;;4.43;3.92;;;24.30;60.90;24.80;101183.00;;;;5026019;28;20183;-47
2023/09/07 08:39:20;;;;;;;4.85;4.40;;;24.30;61.00;24.80;101183.00;;;;5021743;28;20206;-48
2023/09/07 08:41:47;;;;;;;5.70;4.30;;;24.30;61.40;24.80;101175.00;;;;5026246;28;20602;-52
2023/09/07 08:44:19;;;;;;;5.95;4.18;;;24.30;61.90;24.80;101189.00;;;;5025835;28;20179;-52
2023/09/07 08:46:45;;;;;;;7.13;4.50;;;24.40;62.10;24.80;101171.00;;;;5024007;28;20179;-51
2023/09/07 08:49:11;;;;;;;7.03;4.40;;;24.40;62.10;24.90;101186.00;;;;5023932;28;20534;-52
2023/09/07 08:51:37;;;;;;;4.45;4.07;;;24.30;62.00;24.90;101185.00;;;;5025832;28;20187;-51
2023/09/07 08:54:07;;;;;;;5.30;4.38;;;24.40;62.30;24.90;101176.00;;;;5025796;28;20184;-51
2023/09/07 08:56:33;;;;;;;4.20;3.90;;;24.40;62.50;25.00;101181.00;;;;5025365;28;20431;-52
2023/09/07 08:58:59;;;;;;;4.20;3.80;;;24.40;62.50;25.00;101174.00;;;;5025151;28;20234;-54
2023/09/07 09:01:25;;;;;;;4.10;3.78;;;24.40;62.60;25.00;101180.00;;;;5025667;28;20260;-52
2023/09/07 09:03:51;;;;;;;6.35;3.83;;;24.50;63.00;25.00;101179.00;;;;5024479;28;20771;-52
2023/09/07 09:06:21;;;;;;;6.93;4.30;;;24.50;63.00;25.00;101192.00;;;;5024232;28;20183;-52
2023/09/07 09:08:53;;;;;;;4.25;3.90;;;24.50;63.10;25.00;101185.00;;;;5025566;28;20219;-52
2023/09/07 09:11:19;;;;;;;4.47;4.05;;;24.50;63.00;25.10;101183.00;;;;5025622;28;20202;-51
2023/09/07 09:13:45;;;;;;;5.72;3.90;;;24.50;63.10;25.10;101183.00;;;;5025302;28;20701;-53
2023/09/07 09:16:12;;;;;;;5.53;3.90;;;24.50;63.10;25.10;101183.00;;;;5022835;28;20206;-53
2023/09/07 09:18:39;;;;;;;4.10;3.80;;;24.50;63.20;25.10;101180.00;;;;5024735;28;20207;-53
2023/09/07 09:21:05;;;;;;;4.63;4.15;;;24.50;63.30;25.10;101179.00;;;;5025471;28;20580;-52
2023/09/07 09:23:36;;;;;;;4.28;3.80;;;24.50;63.30;25.10;101168.00;;;;5025135;28;20266;-52
2023/09/07 09:26:03;;;;;;;5.28;3.90;;;24.50;63.50;25.20;101175.00;;;;5025547;28;20195;-52
2023/09/07 09:28:33;;;;;;;4.63;3.95;;;24.50;63.50;25.20;101168.00;;;;5024084;28;20249;-53
2023/09/07 09:31:02;;;;;;;4.40;4.10;;;24.50;63.50;25.20;101159.00;;;;5013257;28;20212;-53
2023/09/07 09:33:31;;;;;;;4.32;4.03;;;24.60;64.10;25.20;101155.00;;;;5011143;28;20186;-53
2023/09/07 09:35:57;;;;;;;4.45;3.97;;;24.60;63.90;25.20;101167.00;;;;5012214;28;20186;-53
2023/09/07 09:38:22;;;;;;;4.38;3.97;;;24.60;64.20;25.20;101165.00;;;;5011716;28;20716;-52
2023/09/07 09:40:48;;;;;;;4.15;3.85;;;24.60;64.30;25.20;101154.00;;;;5010936;28;20190;-53
2023/09/07 09:43:14;;;;;;;4.75;3.75;;;24.60;64.50;25.30;101157.00;;;;5007984;28;20178;-53
2023/09/07 09:45:40;;;;;;;4.53;3.83;;;24.70;64.70;25.30;101161.00;;;;5009861;28;20259;-52
2023/09/07 09:48:06;;;;;;;3.90;3.60;;;24.70;64.90;25.30;101157.00;;;;5011473;28;20196;-53
2023/09/07 09:50:37;;;;;;;4.13;3.83;;;24.70;65.30;25.30;101153.00;;;;5011738;28;20230;-52
2023/09/07 09:53:07;;;;;;;4.20;3.80;;;24.70;65.30;25.30;101139.00;;;;5011822;28;20209;-52
2023/09/07 09:55:34;;;;;;;4.15;3.85;;;24.70;65.60;25.30;101154.00;;;;5009094;28;20191;-52
2023/09/07 09:58:00;;;;;;;5.03;3.80;;;24.70;65.60;25.40;101148.00;;;;5011224;28;20203;-53
2023/09/07 10:00:26;;;;;;;4.00;3.70;;;24.70;65.70;25.40;101143.00;;;;5012860;28;20242;-53
2023/09/07 10:03:05;;;;;;;4.15;3.80;;;24.80;65.80;25.40;101138.00;;;;5011089;28;20612;-52
2023/09/07 10:05:31;;;;;;;3.63;3.33;;;24.80;66.00;25.40;101139.00;;;;4978611;28;20645;-52
2023/09/07 10:08:05;;;;;;;3.92;3.53;;;24.80;66.40;25.40;101141.00;;;;4977070;28;20225;-51
2023/09/07 10:10:37;;;;;;;3.75;3.45;;;24.80;66.20;25.40;101138.00;;;;4993758;28;20172;-52
2023/09/07 10:13:06;;;;;;;3.75;3.45;;;24.80;66.70;25.40;101126.00;;;;5011977;28;20203;-56
2023/09/07 10:15:32;;;;;;;4.03;3.33;;;24.80;66.80;25.50;101134.00;;;;5008995;28;20199;-52
2023/09/07 10:18:15;;;;;;;3.75;3.45;;;24.80;66.60;25.50;101132.00;;;;5007138;28;20230;-52
2023/09/07 10:21:10;;;;;;;3.95;3.47;;;24.90;66.80;25.50;101130.00;;;;5004988;28;20183;-54
2023/09/07 10:23:43;;;;;;;3.85;3.55;;;24.90;66.90;25.50;101139.00;;;;5027390;28;20176;-52
2023/09/07 10:26:14;;;;;;;3.67;3.38;;;25.00;67.10;25.50;101124.00;;;;5004065;28;20262;-51
2023/09/07 10:28:39;;;;;;;3.92;3.63;;;25.00;67.10;25.50;101127.00;;;;5010463;28;20203;-52
2023/09/07 10:31:18;;;;;;;3.97;3.67;;;25.00;67.30;25.50;101135.00;;;;5005830;28;20187;-52
2023/09/07 10:33:45;;;;;;;4.60;3.60;;;25.00;67.30;25.50;101129.00;;;;5010781;28;20237;-53
2023/09/07 10:36:27;;;;;;;3.70;3.40;;;25.00;67.30;25.60;101125.00;;;;5014175;28;20685;-53
2023/09/07 10:38:55;;;;;;;3.63;3.33;;;25.00;67.40;25.60;101120.00;;;;5032506;28;20234;-53
2023/09/07 10:41:21;;;;;;;4.00;3.70;;;25.00;67.50;25.60;101126.00;;;;5010744;28;20211;-51
2023/09/07 10:43:48;;;;;;;3.42;3.15;;;25.00;67.50;25.60;101121.00;;;;5007200;28;20269;-52
2023/09/07 10:46:14;;;;;;;3.63;3.33;;;25.00;67.70;25.60;101110.00;;;;5010711;28;20186;-52